sensor_id;sensor_type;location;lat;lon;timestamp;pressure;altitude;pressure_sealevel;temperature;humidity
73860;BME280;62197;51.632;13.700;2023-05-24T00:01:32;100450.75;;;9.77;100.00
73860;BME280;62197;51.632;13.700;2023-05-24T00:03:58;100455.41;;;9.88;96.11
73860;BME280;62197;51.632;13.700;2023-05-24T00:06:25;100458.88;;;9.83;97.19
73860;BME280;62197;51.632;13.700;2023-05-24T00:08:52;100459.94;;;9.71;99.37
73860;BME280;62197;51.632;13.700;2023-05-24T00:11:17;100448.06;;;9.59;97.88
73860;BME280;62197;51.632;13.700;2023-05-24T00:13:42;100453.44;;;9.54;97.83
73860;BME280;62197;51.632;13.700;2023-05-24T00:16:08;100446.22;;;9.53;98.08
73860;BME280;62197;51.632;13.700;2023-05-24T00:18:33;100455.25;;;9.60;97.98
73860;BME280;62197;51.632;13.700;2023-05-24T00:20:58;100462.41;;;9.49;98.80
73860;BME280;62197;51.632;13.700;2023-05-24T00:23:24;100464.47;;;9.54;100.00
73860;BME280;62197;51.632;13.700;2023-05-24T00:25:50;100460.63;;;9.55;99.63
73860;BME280;62197;51.632;13.700;2023-05-24T00:28:16;100465.03;;;9.44;98.96
73860;BME280;62197;51.632;13.700;2023-05-24T00:30:41;100466.88;;;9.62;98.73
73860;BME280;62197;51.632;13.700;2023-05-24T00:33:06;100466.25;;;9.48;100.00
73860;BME280;62197;51.632;13.700;2023-05-24T00:35:31;100465.59;;;9.87;98.44
73860;BME280;62197;51.632;13.700;2023-05-24T00:37:57;100471.84;;;9.42;98.86
73860;BME280;62197;51.632;13.700;2023-05-24T00:40:22;100477.72;;;9.45;100.00
73860;BME280;62197;51.632;13.700;2023-05-24T00:42:47;100469.88;;;9.31;99.25
73860;BME280;62197;51.632;13.700;2023-05-24T00:45:12;100471.91;;;9.65;100.00
73860;BME280;62197;51.632;13.700;2023-05-24T00:47:38;100474.97;;;9.45;100.00
73860;BME280;62197;51.632;13.700;2023-05-24T00:50:04;100481.56;;;9.44;100.00
73860;BME280;62197;51.632;13.700;2023-05-24T00:52:31;100475.59;;;10.00;100.00
73860;BME280;62197;51.632;13.700;2023-05-24T00:54:56;100487.81;;;10.04;100.00
73860;BME280;62197;51.632;13.700;2023-05-24T00:57:22;100476.00;;;9.74;99.42
73860;BME280;62197;51.632;13.700;2023-05-24T00:59:47;100477.78;;;10.10;100.00
73860;BME280;62197;51.632;13.700;2023-05-24T01:02:13;100473.41;;;9.49;98.35
73860;BME280;62197;51.632;13.700;2023-05-24T01:04:38;100479.78;;;9.50;100.00
73860;BME280;62197;51.632;13.700;2023-05-24T01:10:11;100476.16;;;9.20;99.69
73860;BME280;62197;51.632;13.700;2023-05-24T01:13:02;100482.19;;;9.58;100.00
73860;BME280;62197;51.632;13.700;2023-05-24T01:18:23;100463.88;;;9.04;99.31
73860;BME280;62197;51.632;13.700;2023-05-24T01:20:59;100469.63;;;9.02;100.00
73860;BME280;62197;51.632;13.700;2023-05-24T01:28:47;100474.91;;;9.34;97.21
73860;BME280;62197;51.632;13.700;2023-05-24T01:31:13;100477.44;;;9.35;99.70
73860;BME280;62197;51.632;13.700;2023-05-24T01:33:41;100481.72;;;9.61;97.16
73860;BME280;62197;51.632;13.700;2023-05-24T01:36:07;100490.66;;;9.86;100.00
73860;BME280;62197;51.632;13.700;2023-05-24T01:38:32;100483.53;;;9.67;97.48
73860;BME280;62197;51.632;13.700;2023-05-24T01:41:04;100487.78;;;9.51;100.00
73860;BME280;62197;51.632;13.700;2023-05-24T01:43:42;100479.84;;;9.43;96.89
73860;BME280;62197;51.632;13.700;2023-05-24T01:46:34;100490.09;;;9.66;100.00
73860;BME280;62197;51.632;13.700;2023-05-24T01:49:12;100484.81;;;9.53;100.00
73860;BME280;62197;51.632;13.700;2023-05-24T01:52:01;100489.50;;;9.52;99.91
73860;BME280;62197;51.632;13.700;2023-05-24T01:54:30;100482.38;;;9.45;100.00
73860;BME280;62197;51.632;13.700;2023-05-24T01:56:57;100489.94;;;9.79;100.00
73860;BME280;62197;51.632;13.700;2023-05-24T01:59:24;100483.94;;;9.82;95.66
73860;BME280;62197;51.632;13.700;2023-05-24T02:01:51;100475.53;;;9.36;97.55
73860;BME280;62197;51.632;13.700;2023-05-24T02:04:16;100483.19;;;9.16;100.00
73860;BME280;62197;51.632;13.700;2023-05-24T02:06:42;100480.41;;;9.34;100.00
73860;BME280;62197;51.632;13.700;2023-05-24T02:09:07;100477.94;;;9.14;97.64
73860;BME280;62197;51.632;13.700;2023-05-24T02:11:32;100478.19;;;8.94;98.60
73860;BME280;62197;51.632;13.700;2023-05-24T02:13:58;100479.09;;;8.88;99.89
73860;BME280;62197;51.632;13.700;2023-05-24T02:16:23;100471.50;;;8.72;99.77
73860;BME280;62197;51.632;13.700;2023-05-24T02:18:51;100473.31;;;8.60;99.81
73860;BME280;62197;51.632;13.700;2023-05-24T02:21:16;100482.13;;;8.69;100.00
73860;BME280;62197;51.632;13.700;2023-05-24T02:23:41;100474.06;;;8.85;100.00
73860;BME280;62197;51.632;13.700;2023-05-24T02:26:06;100473.28;;;8.96;100.00
73860;BME280;62197;51.632;13.700;2023-05-24T02:28:35;100473.47;;;8.83;100.00
73860;BME280;62197;51.632;13.700;2023-05-24T02:31:00;100478.75;;;8.67;100.00
73860;BME280;62197;51.632;13.700;2023-05-24T02:33:26;100471.00;;;8.75;98.56
73860;BME280;62197;51.632;13.700;2023-05-24T02:35:54;100471.22;;;8.56;100.00
73860;BME280;62197;51.632;13.700;2023-05-24T02:38:19;100474.16;;;8.61;100.00
73860;BME280;62197;51.632;13.700;2023-05-24T02:40:45;100469.34;;;8.74;100.00
73860;BME280;62197;51.632;13.700;2023-05-24T02:43:10;100471.19;;;8.62;100.00
73860;BME280;62197;51.632;13.700;2023-05-24T02:45:35;100471.78;;;8.82;100.00
73860;BME280;62197;51.632;13.700;2023-05-24T02:48:01;100471.94;;;8.69;100.00
73860;BME280;62197;51.632;13.700;2023-05-24T02:50:27;100476.34;;;8.52;100.00
73860;BME280;62197;51.632;13.700;2023-05-24T02:52:52;100476.75;;;8.56;100.00
73860;BME280;62197;51.632;13.700;2023-05-24T02:55:17;100476.34;;;8.88;100.00
73860;BME280;62197;51.632;13.700;2023-05-24T02:57:42;100473.00;;;8.32;100.00
73860;BME280;62197;51.632;13.700;2023-05-24T03:00:08;100472.84;;;8.45;100.00
73860;BME280;62197;51.632;13.700;2023-05-24T03:02:35;100466.66;;;8.32;100.00
73860;BME280;62197;51.632;13.700;2023-05-24T03:05:02;100473.75;;;8.14;100.00
73860;BME280;62197;51.632;13.700;2023-05-24T03:07:28;100464.94;;;8.06;100.00
73860;BME280;62197;51.632;13.700;2023-05-24T03:09:53;100472.34;;;7.81;100.00
73860;BME280;62197;51.632;13.700;2023-05-24T03:12:19;100472.91;;;8.14;100.00
73860;BME280;62197;51.632;13.700;2023-05-24T03:14:44;100469.16;;;8.08;100.00
73860;BME280;62197;51.632;13.700;2023-05-24T03:17:09;100465.66;;;8.26;100.00
73860;BME280;62197;51.632;13.700;2023-05-24T03:19:35;100466.75;;;7.94;100.00
73860;BME280;62197;51.632;13.700;2023-05-24T03:22:01;100470.16;;;7.65;100.00
73860;BME280;62197;51.632;13.700;2023-05-24T03:24:26;100474.94;;;7.76;100.00
73860;BME280;62197;51.632;13.700;2023-05-24T03:26:52;100465.28;;;7.67;100.00
73860;BME280;62197;51.632;13.700;2023-05-24T03:29:17;100470.69;;;7.80;100.00
73860;BME280;62197;51.632;13.700;2023-05-24T03:31:42;100472.63;;;7.73;100.00
73860;BME280;62197;51.632;13.700;2023-05-24T03:34:08;100469.97;;;7.60;100.00
73860;BME280;62197;51.632;13.700;2023-05-24T03:36:33;100472.38;;;7.74;100.00
73860;BME280;62197;51.632;13.700;2023-05-24T03:38:58;100475.47;;;7.60;100.00
73860;BME280;62197;51.632;13.700;2023-05-24T03:41:24;100485.44;;;7.85;100.00
73860;BME280;62197;51.632;13.700;2023-05-24T03:43:50;100478.63;;;7.88;100.00
73860;BME280;62197;51.632;13.700;2023-05-24T03:46:16;100490.31;;;8.08;100.00
73860;BME280;62197;51.632;13.700;2023-05-24T03:48:41;100490.63;;;8.43;100.00
73860;BME280;62197;51.632;13.700;2023-05-24T03:51:06;100479.09;;;8.34;100.00
73860;BME280;62197;51.632;13.700;2023-05-24T03:53:33;100494.38;;;8.48;100.00
73860;BME280;62197;51.632;13.700;2023-05-24T03:55:58;100500.91;;;8.29;100.00
73860;BME280;62197;51.632;13.700;2023-05-24T03:58:24;100492.84;;;8.34;100.00
73860;BME280;62197;51.632;13.700;2023-05-24T04:00:49;100501.69;;;8.11;100.00
73860;BME280;62197;51.632;13.700;2023-05-24T04:03:15;100489.75;;;8.24;100.00
73860;BME280;62197;51.632;13.700;2023-05-24T04:05:40;100491.47;;;8.43;100.00
73860;BME280;62197;51.632;13.700;2023-05-24T04:08:05;100496.00;;;8.38;100.00
73860;BME280;62197;51.632;13.700;2023-05-24T04:10:30;100503.53;;;8.42;99.95
73860;BME280;62197;51.632;13.700;2023-05-24T04:12:56;100497.56;;;8.27;99.58
73860;BME280;62197;51.632;13.700;2023-05-24T04:15:22;100503.94;;;8.46;100.00
73860;BME280;62197;51.632;13.700;2023-05-24T04:17:48;100517.84;;;8.51;100.00
73860;BME280;62197;51.632;13.700;2023-05-24T04:20:19;100514.09;;;8.45;100.00
73860;BME280;62197;51.632;13.700;2023-05-24T04:22:44;100519.31;;;8.71;98.45
73860;BME280;62197;51.632;13.700;2023-05-24T04:25:10;100518.22;;;8.54;100.00
73860;BME280;62197;51.632;13.700;2023-05-24T04:27:35;100527.91;;;8.39;100.00
73860;BME280;62197;51.632;13.700;2023-05-24T04:30:00;100526.84;;;8.40;99.42
73860;BME280;62197;51.632;13.700;2023-05-24T04:32:26;100524.13;;;8.58;100.00
73860;BME280;62197;51.632;13.700;2023-05-24T04:34:54;100533.78;;;8.67;98.57
73860;BME280;62197;51.632;13.700;2023-05-24T04:37:19;100532.19;;;8.95;97.35
73860;BME280;62197;51.632;13.700;2023-05-24T04:39:45;100530.03;;;8.79;99.22
73860;BME280;62197;51.632;13.700;2023-05-24T04:42:11;100528.66;;;8.70;98.11
73860;BME280;62197;51.632;13.700;2023-05-24T04:44:37;100536.38;;;8.80;97.97
73860;BME280;62197;51.632;13.700;2023-05-24T04:47:04;100539.03;;;9.04;97.11
73860;BME280;62197;51.632;13.700;2023-05-24T04:49:29;100539.13;;;8.80;96.69
73860;BME280;62197;51.632;13.700;2023-05-24T04:51:55;100537.59;;;9.02;98.74
73860;BME280;62197;51.632;13.700;2023-05-24T04:54:21;100542.09;;;8.96;96.00
73860;BME280;62197;51.632;13.700;2023-05-24T04:56:46;100539.28;;;9.03;96.26
73860;BME280;62197;51.632;13.700;2023-05-24T04:59:12;100551.53;;;9.25;95.51
73860;BME280;62197;51.632;13.700;2023-05-24T05:01:37;100541.19;;;9.02;95.68
73860;BME280;62197;51.632;13.700;2023-05-24T05:04:03;100546.06;;;9.37;98.16
73860;BME280;62197;51.632;13.700;2023-05-24T05:06:28;100555.41;;;9.36;93.99
73860;BME280;62197;51.632;13.700;2023-05-24T05:08:54;100556.31;;;9.48;96.87
73860;BME280;62197;51.632;13.700;2023-05-24T05:11:19;100553.31;;;9.31;95.83
73860;BME280;62197;51.632;13.700;2023-05-24T05:13:44;100545.78;;;9.08;95.47
73860;BME280;62197;51.632;13.700;2023-05-24T05:16:10;100560.34;;;9.27;94.22
73860;BME280;62197;51.632;13.700;2023-05-24T05:18:35;100562.00;;;9.17;95.43
73860;BME280;62197;51.632;13.700;2023-05-24T05:21:01;100578.38;;;9.12;96.77
73860;BME280;62197;51.632;13.700;2023-05-24T05:23:28;100569.63;;;9.15;93.69
73860;BME280;62197;51.632;13.700;2023-05-24T05:25:53;100567.19;;;9.06;95.39
73860;BME280;62197;51.632;13.700;2023-05-24T05:28:18;100573.22;;;9.33;96.10
73860;BME280;62197;51.632;13.700;2023-05-24T05:30:44;100572.31;;;9.21;94.18
73860;BME280;62197;51.632;13.700;2023-05-24T05:33:09;100574.41;;;9.07;94.54
73860;BME280;62197;51.632;13.700;2023-05-24T05:35:34;100573.16;;;9.22;93.82
73860;BME280;62197;51.632;13.700;2023-05-24T05:38:00;100586.59;;;9.48;96.42
73860;BME280;62197;51.632;13.700;2023-05-24T05:40:25;100586.94;;;9.69;92.36
73860;BME280;62197;51.632;13.700;2023-05-24T05:42:50;100593.63;;;9.62;92.71
73860;BME280;62197;51.632;13.700;2023-05-24T05:45:15;100599.09;;;9.32;92.74
73860;BME280;62197;51.632;13.700;2023-05-24T05:47:41;100604.16;;;9.83;94.33
73860;BME280;62197;51.632;13.700;2023-05-24T05:50:07;100590.25;;;9.60;89.99
73860;BME280;62197;51.632;13.700;2023-05-24T05:52:32;100614.28;;;9.53;92.28
73860;BME280;62197;51.632;13.700;2023-05-24T05:54:58;100597.84;;;9.28;92.38
73860;BME280;62197;51.632;13.700;2023-05-24T05:57:24;100600.84;;;9.27;93.90
73860;BME280;62197;51.632;13.700;2023-05-24T05:59:49;100604.34;;;9.34;93.04
73860;BME280;62197;51.632;13.700;2023-05-24T06:02:15;100596.09;;;9.52;92.09
73860;BME280;62197;51.632;13.700;2023-05-24T06:04:40;100600.53;;;9.17;93.12
73860;BME280;62197;51.632;13.700;2023-05-24T06:07:05;100594.44;;;9.33;93.13
73860;BME280;62197;51.632;13.700;2023-05-24T06:09:30;100603.91;;;9.19;93.52
73860;BME280;62197;51.632;13.700;2023-05-24T06:11:56;100603.06;;;9.18;94.26
73860;BME280;62197;51.632;13.700;2023-05-24T06:14:21;100605.97;;;9.23;94.07
73860;BME280;62197;51.632;13.700;2023-05-24T06:16:49;100608.03;;;9.46;95.53
73860;BME280;62197;51.632;13.700;2023-05-24T06:19:16;100610.31;;;9.49;93.64
73860;BME280;62197;51.632;13.700;2023-05-24T06:21:42;100610.97;;;9.62;91.52
73860;BME280;62197;51.632;13.700;2023-05-24T06:24:15;100616.72;;;9.43;92.83
73860;BME280;62197;51.632;13.700;2023-05-24T06:26:44;100605.31;;;9.75;91.29
73860;BME280;62197;51.632;13.700;2023-05-24T06:29:09;100600.94;;;9.68;92.22
73860;BME280;62197;51.632;13.700;2023-05-24T06:31:35;100610.41;;;9.90;89.61
73860;BME280;62197;51.632;13.700;2023-05-24T06:34:00;100609.34;;;9.91;90.06
73860;BME280;62197;51.632;13.700;2023-05-24T06:36:25;100606.78;;;9.89;90.72
73860;BME280;62197;51.632;13.700;2023-05-24T06:38:51;100612.97;;;9.73;89.94
73860;BME280;62197;51.632;13.700;2023-05-24T06:41:16;100614.19;;;9.77;91.59
73860;BME280;62197;51.632;13.700;2023-05-24T06:43:41;100614.28;;;9.71;91.44
73860;BME280;62197;51.632;13.700;2023-05-24T06:46:07;100614.72;;;9.68;88.68
73860;BME280;62197;51.632;13.700;2023-05-24T06:48:32;100615.28;;;9.88;89.30
73860;BME280;62197;51.632;13.700;2023-05-24T06:50:57;100627.66;;;9.97;89.15
73860;BME280;62197;51.632;13.700;2023-05-24T06:53:23;100626.91;;;10.08;86.92
73860;BME280;62197;51.632;13.700;2023-05-24T06:55:48;100634.50;;;9.94;88.31
73860;BME280;62197;51.632;13.700;2023-05-24T06:58:13;100644.28;;;10.38;89.87
73860;BME280;62197;51.632;13.700;2023-05-24T07:00:42;100646.69;;;10.46;87.61
73860;BME280;62197;51.632;13.700;2023-05-24T07:03:08;100644.44;;;10.55;86.35
73860;BME280;62197;51.632;13.700;2023-05-24T07:05:33;100642.41;;;10.50;86.21
73860;BME280;62197;51.632;13.700;2023-05-24T07:07:59;100651.13;;;10.47;84.06
73860;BME280;62197;51.632;13.700;2023-05-24T07:10:24;100656.22;;;10.62;88.13
73860;BME280;62197;51.632;13.700;2023-05-24T07:12:50;100667.88;;;10.75;86.40
73860;BME280;62197;51.632;13.700;2023-05-24T07:15:16;100660.56;;;10.81;88.25
73860;BME280;62197;51.632;13.700;2023-05-24T07:17:41;100654.69;;;10.77;83.59
73860;BME280;62197;51.632;13.700;2023-05-24T07:20:06;100661.41;;;11.28;83.79
73860;BME280;62197;51.632;13.700;2023-05-24T07:22:34;100654.94;;;10.87;82.02
73860;BME280;62197;51.632;13.700;2023-05-24T07:25:00;100659.59;;;10.75;82.42
73860;BME280;62197;51.632;13.700;2023-05-24T07:27:25;100661.34;;;10.47;87.55
73860;BME280;62197;51.632;13.700;2023-05-24T07:29:50;100679.91;;;10.40;82.71
73860;BME280;62197;51.632;13.700;2023-05-24T07:32:16;100669.66;;;10.58;81.28
73860;BME280;62197;51.632;13.700;2023-05-24T07:34:41;100675.59;;;10.44;81.16
73860;BME280;62197;51.632;13.700;2023-05-24T07:37:07;100681.03;;;10.50;82.45
73860;BME280;62197;51.632;13.700;2023-05-24T07:39:32;100682.91;;;10.38;81.12
73860;BME280;62197;51.632;13.700;2023-05-24T07:41:58;100681.88;;;10.51;80.86
73860;BME280;62197;51.632;13.700;2023-05-24T07:44:23;100689.88;;;11.05;80.45
73860;BME280;62197;51.632;13.700;2023-05-24T07:46:48;100680.91;;;10.68;77.28
73860;BME280;62197;51.632;13.700;2023-05-24T07:49:14;100682.97;;;10.73;79.71
73860;BME280;62197;51.632;13.700;2023-05-24T07:51:39;100686.25;;;10.81;79.73
73860;BME280;62197;51.632;13.700;2023-05-24T07:54:04;100682.91;;;10.91;77.53
73860;BME280;62197;51.632;13.700;2023-05-24T07:56:30;100683.38;;;11.00;77.39
73860;BME280;62197;51.632;13.700;2023-05-24T07:58:56;100686.38;;;11.33;76.05
73860;BME280;62197;51.632;13.700;2023-05-24T08:01:27;100686.63;;;11.20;75.67
73860;BME280;62197;51.632;13.700;2023-05-24T08:03:53;100691.53;;;10.83;75.69
73860;BME280;62197;51.632;13.700;2023-05-24T08:06:18;100694.91;;;11.08;77.03
73860;BME280;62197;51.632;13.700;2023-05-24T08:08:43;100692.75;;;11.45;74.71
73860;BME280;62197;51.632;13.700;2023-05-24T08:11:10;100687.56;;;11.37;73.64
73860;BME280;62197;51.632;13.700;2023-05-24T08:13:36;100689.13;;;11.44;74.90
73860;BME280;62197;51.632;13.700;2023-05-24T08:16:01;100688.53;;;11.42;73.20
73860;BME280;62197;51.632;13.700;2023-05-24T08:18:26;100695.50;;;11.45;72.59
73860;BME280;62197;51.632;13.700;2023-05-24T08:20:52;100693.47;;;11.40;73.48
73860;BME280;62197;51.632;13.700;2023-05-24T08:23:17;100700.78;;;11.35;74.32
73860;BME280;62197;51.632;13.700;2023-05-24T08:25:42;100696.19;;;11.75;72.34
73860;BME280;62197;51.632;13.700;2023-05-24T08:28:08;100696.81;;;11.65;71.61
73860;BME280;62197;51.632;13.700;2023-05-24T08:30:35;100689.81;;;11.86;71.40
73860;BME280;62197;51.632;13.700;2023-05-24T08:33:01;100692.84;;;11.73;69.84
73860;BME280;62197;51.632;13.700;2023-05-24T08:35:26;100704.56;;;12.03;68.72
73860;BME280;62197;51.632;13.700;2023-05-24T08:37:51;100697.84;;;12.27;70.51
73860;BME280;62197;51.632;13.700;2023-05-24T08:40:17;100695.28;;;12.09;69.84
73860;BME280;62197;51.632;13.700;2023-05-24T08:42:42;100700.53;;;12.84;69.14
73860;BME280;62197;51.632;13.700;2023-05-24T08:45:12;100696.63;;;12.35;68.95
73860;BME280;62197;51.632;13.700;2023-05-24T08:47:38;100692.75;;;12.36;69.77
73860;BME280;62197;51.632;13.700;2023-05-24T08:50:04;100700.84;;;11.98;68.57
73860;BME280;62197;51.632;13.700;2023-05-24T08:52:30;100694.03;;;11.77;68.83
73860;BME280;62197;51.632;13.700;2023-05-24T08:55:00;100700.56;;;11.71;71.20
73860;BME280;62197;51.632;13.700;2023-05-24T08:57:26;100701.31;;;12.34;70.37
73860;BME280;62197;51.632;13.700;2023-05-24T08:59:51;100703.53;;;12.49;66.80
73860;BME280;62197;51.632;13.700;2023-05-24T09:02:20;100700.47;;;12.34;67.39
73860;BME280;62197;51.632;13.700;2023-05-24T09:04:47;100701.66;;;12.83;67.99
73860;BME280;62197;51.632;13.700;2023-05-24T09:07:15;100704.44;;;12.83;64.84
73860;BME280;62197;51.632;13.700;2023-05-24T09:09:42;100707.72;;;11.95;65.58
73860;BME280;62197;51.632;13.700;2023-05-24T09:12:13;100698.13;;;12.14;66.96
73860;BME280;62197;51.632;13.700;2023-05-24T09:14:45;100715.41;;;11.93;68.35
73860;BME280;62197;51.632;13.700;2023-05-24T09:17:11;100712.41;;;11.83;69.26
73860;BME280;62197;51.632;13.700;2023-05-24T09:19:43;100712.44;;;11.71;68.71
73860;BME280;62197;51.632;13.700;2023-05-24T09:22:08;100713.28;;;11.49;69.42
73860;BME280;62197;51.632;13.700;2023-05-24T09:24:40;100712.44;;;11.60;69.96
73860;BME280;62197;51.632;13.700;2023-05-24T09:27:06;100712.94;;;11.68;69.36
73860;BME280;62197;51.632;13.700;2023-05-24T09:29:35;100726.97;;;11.90;69.49
73860;BME280;62197;51.632;13.700;2023-05-24T09:32:00;100733.34;;;11.79;68.05
73860;BME280;62197;51.632;13.700;2023-05-24T09:34:28;100728.22;;;11.71;68.28
73860;BME280;62197;51.632;13.700;2023-05-24T09:36:53;100723.38;;;11.78;67.89
73860;BME280;62197;51.632;13.700;2023-05-24T09:39:19;100725.56;;;11.76;69.57
73860;BME280;62197;51.632;13.700;2023-05-24T09:41:51;100730.34;;;11.23;71.07
73860;BME280;62197;51.632;13.700;2023-05-24T09:44:23;100728.06;;;11.31;70.09
73860;BME280;62197;51.632;13.700;2023-05-24T09:46:48;100730.22;;;11.52;69.89
73860;BME280;62197;51.632;13.700;2023-05-24T09:49:14;100731.53;;;11.96;68.80
73860;BME280;62197;51.632;13.700;2023-05-24T09:51:39;100726.63;;;12.26;67.66
73860;BME280;62197;51.632;13.700;2023-05-24T09:54:04;100729.84;;;11.95;66.42
73860;BME280;62197;51.632;13.700;2023-05-24T09:56:32;100725.63;;;12.32;66.16
73860;BME280;62197;51.632;13.700;2023-05-24T09:58:57;100722.06;;;12.20;64.91
73860;BME280;62197;51.632;13.700;2023-05-24T10:01:23;100725.31;;;12.45;64.25
73860;BME280;62197;51.632;13.700;2023-05-24T10:03:54;100722.41;;;12.97;62.96
73860;BME280;62197;51.632;13.700;2023-05-24T10:06:19;100733.50;;;12.97;62.50
73860;BME280;62197;51.632;13.700;2023-05-24T10:08:46;100725.47;;;13.12;62.45
73860;BME280;62197;51.632;13.700;2023-05-24T10:11:13;100722.03;;;12.77;61.02
73860;BME280;62197;51.632;13.700;2023-05-24T10:13:38;100726.97;;;13.19;59.66
73860;BME280;62197;51.632;13.700;2023-05-24T10:16:04;100726.53;;;13.44;60.68
73860;BME280;62197;51.632;13.700;2023-05-24T10:18:29;100729.09;;;13.01;60.00
73860;BME280;62197;51.632;13.700;2023-05-24T10:20:55;100725.94;;;14.02;56.16
73860;BME280;62197;51.632;13.700;2023-05-24T10:23:22;100735.41;;;14.71;57.44
73860;BME280;62197;51.632;13.700;2023-05-24T10:25:51;100736.63;;;14.31;57.85
73860;BME280;62197;51.632;13.700;2023-05-24T10:28:19;100733.41;;;14.39;57.52
73860;BME280;62197;51.632;13.700;2023-05-24T10:30:58;100735.31;;;15.19;58.98
73860;BME280;62197;51.632;13.700;2023-05-24T10:33:24;100732.81;;;14.37;56.60
73860;BME280;62197;51.632;13.700;2023-05-24T10:35:51;100734.25;;;14.40;57.03
73860;BME280;62197;51.632;13.700;2023-05-24T10:38:19;100736.06;;;14.83;55.07
73860;BME280;62197;51.632;13.700;2023-05-24T10:40:46;100742.41;;;13.87;58.70
73860;BME280;62197;51.632;13.700;2023-05-24T10:43:11;100736.84;;;13.32;60.74
73860;BME280;62197;51.632;13.700;2023-05-24T10:45:38;100740.91;;;13.79;58.96
73860;BME280;62197;51.632;13.700;2023-05-24T10:50:39;100731.63;;;14.28;54.50
73860;BME280;62197;51.632;13.700;2023-05-24T10:53:14;100737.44;;;14.10;57.19
73860;BME280;62197;51.632;13.700;2023-05-24T10:55:59;100739.00;;;14.01;56.50
73860;BME280;62197;51.632;13.700;2023-05-24T10:58:57;100745.06;;;13.98;56.54
73860;BME280;62197;51.632;13.700;2023-05-24T11:01:30;100736.69;;;13.93;57.54
73860;BME280;62197;51.632;13.700;2023-05-24T11:04:10;100741.16;;;14.37;55.32
73860;BME280;62197;51.632;13.700;2023-05-24T11:06:47;100743.00;;;15.12;53.68
73860;BME280;62197;51.632;13.700;2023-05-24T11:09:14;100733.72;;;16.11;51.51
73860;BME280;62197;51.632;13.700;2023-05-24T11:11:43;100745.16;;;15.68;52.04
73860;BME280;62197;51.632;13.700;2023-05-24T11:14:09;100735.09;;;16.96;49.99
73860;BME280;62197;51.632;13.700;2023-05-24T11:16:36;100735.03;;;18.07;48.10
73860;BME280;62197;51.632;13.700;2023-05-24T11:21:51;100745.16;;;18.61;44.33
73860;BME280;62197;51.632;13.700;2023-05-24T11:24:18;100732.31;;;17.06;47.72
73860;BME280;62197;51.632;13.700;2023-05-24T11:26:44;100733.94;;;16.57;47.59
73860;BME280;62197;51.632;13.700;2023-05-24T11:29:14;100730.91;;;16.73;47.11
73860;BME280;62197;51.632;13.700;2023-05-24T11:31:50;100733.44;;;17.40;45.44
73860;BME280;62197;51.632;13.700;2023-05-24T11:34:16;100746.56;;;17.20;45.35
73860;BME280;62197;51.632;13.700;2023-05-24T11:36:42;100738.44;;;16.78;46.62
73860;BME280;62197;51.632;13.700;2023-05-24T11:39:07;100743.53;;;15.04;49.83
73860;BME280;62197;51.632;13.700;2023-05-24T11:41:37;100732.03;;;16.72;48.18
73860;BME280;62197;51.632;13.700;2023-05-24T11:44:02;100733.41;;;16.85;47.91
73860;BME280;62197;51.632;13.700;2023-05-24T11:46:28;100741.84;;;15.71;52.34
73860;BME280;62197;51.632;13.700;2023-05-24T11:48:55;100742.31;;;14.95;52.60
73860;BME280;62197;51.632;13.700;2023-05-24T11:51:25;100732.91;;;15.01;52.35
73860;BME280;62197;51.632;13.700;2023-05-24T11:53:51;100744.72;;;15.13;52.26
73860;BME280;62197;51.632;13.700;2023-05-24T11:56:16;100745.16;;;17.67;47.89
73860;BME280;62197;51.632;13.700;2023-05-24T11:58:48;100738.22;;;18.54;43.35
73860;BME280;62197;51.632;13.700;2023-05-24T12:01:26;100742.56;;;19.81;40.71
73860;BME280;62197;51.632;13.700;2023-05-24T12:03:52;100746.47;;;18.74;40.53
73860;BME280;62197;51.632;13.700;2023-05-24T12:06:18;100748.63;;;19.64;39.32
73860;BME280;62197;51.632;13.700;2023-05-24T12:08:44;100732.44;;;20.09;40.26
73860;BME280;62197;51.632;13.700;2023-05-24T12:11:10;100737.31;;;19.07;40.36
73860;BME280;62197;51.632;13.700;2023-05-24T12:13:35;100724.38;;;19.16;41.71
73860;BME280;62197;51.632;13.700;2023-05-24T12:16:02;100734.00;;;19.00;42.02
73860;BME280;62197;51.632;13.700;2023-05-24T12:18:27;100733.13;;;18.61;43.38
73860;BME280;62197;51.632;13.700;2023-05-24T12:20:53;100733.84;;;18.81;42.45
73860;BME280;62197;51.632;13.700;2023-05-24T12:23:21;100730.97;;;19.64;41.07
73860;BME280;62197;51.632;13.700;2023-05-24T12:25:47;100725.63;;;17.62;44.28
73860;BME280;62197;51.632;13.700;2023-05-24T12:28:12;100730.06;;;16.88;47.61
73860;BME280;62197;51.632;13.700;2023-05-24T12:30:38;100728.41;;;16.87;48.93
73860;BME280;62197;51.632;13.700;2023-05-24T12:33:08;100735.31;;;16.54;49.65
73860;BME280;62197;51.632;13.700;2023-05-24T12:35:33;100721.84;;;16.31;49.02
73860;BME280;62197;51.632;13.700;2023-05-24T12:37:58;100716.72;;;16.08;48.64
73860;BME280;62197;51.632;13.700;2023-05-24T12:40:24;100739.22;;;16.01;49.17
73860;BME280;62197;51.632;13.700;2023-05-24T12:42:51;100736.16;;;16.55;48.84
73860;BME280;62197;51.632;13.700;2023-05-24T12:45:17;100735.41;;;19.03;45.03
73860;BME280;62197;51.632;13.700;2023-05-24T12:47:48;100737.84;;;19.09;40.87
73860;BME280;62197;51.632;13.700;2023-05-24T12:50:14;100734.22;;;18.65;41.55
73860;BME280;62197;51.632;13.700;2023-05-24T12:52:41;100729.63;;;19.23;41.39
73860;BME280;62197;51.632;13.700;2023-05-24T12:55:07;100742.00;;;20.31;38.24
73860;BME280;62197;51.632;13.700;2023-05-24T12:57:32;100743.03;;;21.01;38.05